Flight Track Log - Related Links

Times and Time Zones

All times are in EDT time to prevent confusion due to time zone crossing. See the AAL1491 flight status page for this flight to view local times or setup timezone preferences in your user account.

Time Position Orientation Groundspeed Altitude Reporting Facility
EDT Latitude Longitude Course Direction KTS MPH feet Rate Location/Type
Sun 03:34:38 PM 32.8610 -97.0550 191° South 176 203 2,100  Level FlightAware ADS-B
Sun 03:34:52 PM 32.8480 -97.0580 191° South 195 224 2,400 1,421 Climbing FlightAware ADS-B
Sun 03:35:16 PM 32.8260 -97.0630 191° South 224 258 3,000 2,444 Climbing FlightAware ADS-B
Sun 03:35:46 PM 32.7960 -97.0700 191° South 216 249 4,600 2,864 Climbing FlightAware ADS-B
Sun 03:36:00 PM 32.7840 -97.0800 215° Southwest 226 260 5,100 1,800 Climbing FlightAware ADS-B
Sun 03:36:16 PM 32.7780 -97.0990 249° West 245 282 5,500 2,100 Climbing FlightAware ADS-B
Sun 03:36:40 PM 32.7800 -97.1320 274° West 259 298 6,500 2,421 Climbing FlightAware ADS-B
Sun 03:37:13 PM 32.7850 -97.1820 277° West 276 318 7,800 2,500 Climbing FlightAware ADS-B
Sun 03:37:40 PM 32.7970 -97.2220 290° West 286 329 9,000 2,776 Climbing FlightAware ADS-B
Sun 03:38:20 PM 32.8180 -97.2800 293° West 286 329 10,900 2,634 Climbing FlightAware ADS-B
Sun 03:39:02 PM 32.8390 -97.3390 293° West 295 339 12,600 2,541 Climbing FlightAware ADS-B
Sun 03:39:45 PM 32.8640 -97.4070 294° West 307 353 14,500 1,920 Climbing FlightAware ADS-B
Sun 03:40:42 PM 32.8920 -97.4870 293° West 310 357 15,800 2,463 Climbing FlightAware ADS-B
Sun 03:41:20 PM 32.9180 -97.5580 294° West 328 377 18,400 3,000 Climbing FlightAware ADS-B
Sun 03:42:06 PM 32.9460 -97.6340 294° West 322 371 20,000 1,186 Climbing FlightAware ADS-B
Sun 03:42:46 PM 32.9710 -97.6990 295° West 322 371 20,100 500 Climbing FlightAware ADS-B
Sun 03:43:30 PM 33.0010 -97.7680 297° West 331 381 20,700 1,037 Climbing FlightAware ADS-B
Sun 03:44:07 PM 33.0360 -97.8240 307° West 347 399 21,500 640 Climbing FlightAware ADS-B
Sun 03:44:45 PM 33.0660 -97.8740 306° West 347 399 21,500 870 Level FlightAware ADS-B
Sun 03:45:16 PM 33.1090 -97.9420 307° West 408 470 22,500 1,714 Climbing FlightAware ADS-B
Sun 03:46:16 PM 33.1780 -98.0560 306° West 424 488 24,100 1,261 Climbing FlightAware ADS-B
Sun 03:47:15 PM 33.2220 -98.1740 294° West 428 493 25,000 551 Climbing FlightAware ADS-B
Sun 03:47:54 PM 33.2430 -98.2490 289° West 428 493 25,000  Level FlightAware ADS-B
Sun 03:48:31 PM 33.2640 -98.3190 290° West 428 493 25,000 3,108 Level FlightAware ADS-B
Sun 03:49:17 PM 33.2970 -98.4560 286° West 433 498 29,300 2,933 Climbing FlightAware ADS-B
Sun 03:50:01 PM 33.3190 -98.5440 287° West 433 498 29,400 977 Climbing FlightAware ADS-B
Sun 03:50:43 PM 33.3460 -98.6440 288° West 437 503 30,700 1,000 Climbing FlightAware ADS-B
Sun 03:51:19 PM 33.3640 -98.7140 287° West 437 503 30,700  Level FlightAware ADS-B
Sun 03:52:07 PM 33.3880 -98.8090 287° West 437 503 30,700  Level FlightAware ADS-B
Sun 03:52:41 PM 33.4050 -98.8760 287° West 437 503 30,700  Level FlightAware ADS-B
Sun 03:53:30 PM 33.4290 -98.9720 287° West 437 503 30,700  Level FlightAware ADS-B
Sun 03:54:07 PM 33.4480 -99.0450 287° West 437 503 30,700  Level FlightAware ADS-B
Sun 03:54:55 PM 33.4720 -99.1400 287° West 437 503 30,700  Level FlightAware ADS-B
Sun 03:56:06 PM 33.5080 -99.2800 287° West 437 503 30,700  Level FlightAware ADS-B
Sun 03:56:44 PM 33.5270 -99.3550 287° West 437 503 30,700  Level FlightAware ADS-B
Sun 03:57:30 PM 33.5500 -99.4450 287° West 437 503 30,700  Level FlightAware ADS-B
Sun 03:58:06 PM 33.5680 -99.5160 287° West 437 503 30,700  Level FlightAware ADS-B
Sun 03:58:56 PM 33.5930 -99.6150 287° West 437 503 30,700  Level FlightAware ADS-B
Sun 03:59:32 PM 33.6110 -99.6860 287° West 437 503 30,700 5,093 Level FlightAware ADS-B
Sun 04:00:22 PM 33.8047 -99.8756 287° West 417 480 38,000 3,982 Climbing Fort Worth Center
Sun 04:01:22 PM 33.8525 -99.9969 295° West 412 474 38,000  Level Fort Worth Center
Sun 04:02:22 PM 33.8997 -100.1236 294° West 412 474 38,000  Level Fort Worth Center
Sun 04:03:22 PM 33.9514 -100.2478 297° West 412 474 38,000  Level Fort Worth Center
Sun 04:04:22 PM 33.9964 -100.3744 293° West 412 474 38,000  Level Fort Worth Center
Sun 04:05:22 PM 34.0456 -100.4967 296° West 412 474 38,000  Level Fort Worth Center
Sun 04:06:22 PM 34.0925 -100.6211 295° West 407 468 38,000  Level Fort Worth Center
Sun 04:07:22 PM 34.1394 -100.7458 294° West 402 463 38,000  Level Fort Worth Center
Sun 04:08:22 PM 34.1839 -100.8706 293° West 402 463 38,000  Level Fort Worth Center
Sun 04:10:48 PM 34.2978 -101.1783 294° West 410 472 38,000  Level Albuquerque Center
Sun 04:11:50 PM 34.3447 -101.3019 295° West 407 468 38,000  Level Albuquerque Center
Sun 04:12:51 PM 34.3906 -101.4292 294° West 410 472 38,000  Level Albuquerque Center
Sun 04:13:53 PM 34.4369 -101.5536 294° West 407 468 38,000  Level Albuquerque Center
Sun 04:14:55 PM 34.4822 -101.6792 294° West 406 467 38,000  Level Albuquerque Center
Sun 04:15:56 PM 34.5278 -101.8075 293° West 410 472 38,000  Level Albuquerque Center
Sun 04:16:58 PM 34.5733 -101.9314 294° West 404 465 38,000  Level Albuquerque Center
Sun 04:17:59 PM 34.6175 -102.0558 293° West 401 461 38,000  Level Albuquerque Center
Sun 04:19:01 PM 34.6636 -102.1800 294° West 401 461 38,000  Level Albuquerque Center
Sun 04:20:02 PM 34.7156 -102.3283 293° West 397 457 38,000  Level Albuquerque Center
Sun 04:21:04 PM 34.7597 -102.4511 294° West 395 455 38,000  Level Albuquerque Center
Sun 04:22:05 PM 34.8025 -102.5744 293° West 396 456 38,000  Level Albuquerque Center
Sun 04:23:07 PM 34.8472 -102.6967 294° West 393 452 38,000  Level Albuquerque Center
Sun 04:24:08 PM 34.8908 -102.8186 294° West 392 451 38,000  Level Albuquerque Center
Sun 04:25:10 PM 34.9333 -102.9408 293° West 389 448 38,000  Level Albuquerque Center
Sun 04:26:11 PM 34.9767 -103.0633 293° West 390 449 38,000  Level Albuquerque Center
Sun 04:27:13 PM 35.0197 -103.1853 293° West 389 448 38,000  Level Albuquerque Center
Sun 04:28:14 PM 35.0622 -103.3081 293° West 390 449 38,000  Level Albuquerque Center
Sun 04:29:16 PM 35.1050 -103.4303 293° West 390 449 38,000  Level Albuquerque Center
Sun 04:30:17 PM 35.1539 -103.5725 293° West 387 445 38,000  Level Albuquerque Center
Sun 04:31:19 PM 35.1964 -103.6931 293° West 385 443 38,000  Level Albuquerque Center
Sun 04:32:20 PM 35.2372 -103.8139 293° West 383 441 38,000  Level Albuquerque Center
Sun 04:33:22 PM 35.2772 -103.9308 293° West 387 445 38,000  Level Albuquerque Center
Sun 04:34:23 PM 35.3186 -104.0539 292° West 391 450 38,000  Level Albuquerque Center
Sun 04:35:25 PM 35.3639 -104.1792 294° West 391 450 38,000  Level Albuquerque Center
Sun 04:36:26 PM 35.4025 -104.3019 291° West 390 449 38,000  Level Albuquerque Center
Sun 04:37:27 PM 35.4492 -104.4444 292° West 385 443 38,000  Level Albuquerque Center
Sun 04:38:29 PM 35.4897 -104.5675 292° West 387 445 38,000  Level Albuquerque Center
Sun 04:39:30 PM 35.5314 -104.6908 293° West 388 447 38,000  Level Albuquerque Center
Sun 04:40:44 PM 35.5794 -104.8369 292° West 392 451 38,000  Level Albuquerque Center
Sun 04:41:46 PM 35.6206 -104.9642 292° West 397 457 38,000  Level Albuquerque Center
Sun 04:47:39 PM 35.8640 -105.7110 292° West 38,000  Level FlightAware ADS-B
Sun 04:48:24 PM 35.8970 -105.8140 292° West 392 451 38,000  Level FlightAware ADS-B
Sun 04:49:06 PM 35.9250 -105.9000 292° West 390 449 38,000  Level FlightAware ADS-B
Sun 04:50:07 PM 35.9600 -106.0130 291° West 391 450 38,000  Level FlightAware ADS-B
Sun 04:50:41 PM 35.9830 -106.0840 292° West 387 445 38,000  Level FlightAware ADS-B
Sun 04:51:29 PM 36.0090 -106.1690 291° West 387 445 38,000  Level FlightAware ADS-B
Sun 04:52:08 PM 36.0300 -106.2370 291° West 387 445 38,000  Level FlightAware ADS-B
Sun 04:53:06 PM 36.0810 -106.3950 292° West 385 443 38,000  Level FlightAware ADS-B
Sun 04:53:48 PM 36.1040 -106.4690 291° West 385 443 38,000  Level FlightAware ADS-B
Sun 04:54:26 PM 36.1300 -106.5520 291° West 386 444 38,000  Level FlightAware ADS-B
Sun 04:55:14 PM 36.1590 -106.6470 291° West 386 444 38,000  Level FlightAware ADS-B
Sun 04:55:38 PM 36.1720 -106.6890 291° West 386 444 38,000  Level FlightAware ADS-B
Sun 04:56:49 PM 36.2110 -106.8130 291° West 386 444 38,000  Level FlightAware ADS-B
Sun 04:57:25 PM 36.2310 -106.8770 291° West 386 444 38,000  Level FlightAware ADS-B
Sun 04:58:11 PM 36.2560 -106.9570 291° West 386 444 38,000  Level FlightAware ADS-B
Sun 04:58:49 PM 36.2760 -107.0240 290° West 386 444 38,000  Level FlightAware ADS-B
Sun 04:59:37 PM 36.3020 -107.1090 291° West 386 444 38,000  Level FlightAware ADS-B
Sun 05:00:27 PM 36.3570 -107.2900 291° West 381 438 38,000  Level FlightAware ADS-B
Sun 05:01:14 PM 36.3880 -107.3930 291° West 381 438 38,000  Level FlightAware ADS-B
Sun 05:01:50 PM 36.4110 -107.4670 291° West 380 437 38,000  Level FlightAware ADS-B
Sun 05:02:40 PM 36.4360 -107.5540 290° West 380 437 38,000  Level FlightAware ADS-B
Sun 05:03:16 PM 36.4550 -107.6170 291° West 380 437 38,000  Level FlightAware ADS-B
Sun 05:04:16 PM 36.4850 -107.7220 290° West 380 437 38,000  Level FlightAware ADS-B
Sun 05:04:53 PM 36.5040 -107.7870 290° West 380 437 38,000  Level FlightAware ADS-B
Sun 05:05:42 PM 36.5290 -107.8720 290° West 380 437 38,000  Level FlightAware ADS-B
Sun 05:06:19 PM 36.5480 -107.9370 290° West 380 437 38,000  Level FlightAware ADS-B
Sun 05:06:55 PM 36.5660 -108.0000 290° West 380 437 38,000  Level FlightAware ADS-B
Sun 05:07:45 PM 36.5920 -108.0870 290° West 380 437 38,000  Level FlightAware ADS-B
Sun 05:08:21 PM 36.6100 -108.1500 290° West 380 437 38,000  Level FlightAware ADS-B
Sun 05:09:08 PM 36.6340 -108.2330 290° West 380 437 38,000  Level FlightAware ADS-B
Sun 05:09:45 PM 36.6530 -108.2970 290° West 380 437 38,000  Level FlightAware ADS-B
Sun 05:10:55 PM 36.6890 -108.4200 290° West 380 437 38,000  Level FlightAware ADS-B
Sun 05:11:45 PM 36.7150 -108.5070 290° West 380 437 38,000  Level FlightAware ADS-B
Sun 05:12:39 PM 36.8042 -108.8019 290° West 391 450 38,000  Level Denver Center
Sun 05:13:40 PM 36.8392 -108.9244 290° West 393 452 38,000  Level Denver Center
Sun 05:14:42 PM 36.8733 -109.0442 290° West 387 445 38,000  Level Denver Center
Sun 05:15:43 PM 36.9136 -109.1847 290° West 386 444 38,000  Level Denver Center
Sun 05:16:44 PM 36.9472 -109.3047 289° West 382 440 38,000  Level Denver Center
Sun 05:17:46 PM 36.9872 -109.4461 290° West 386 444 38,000  Level Denver Center
Sun 05:18:47 PM 37.0206 -109.5672 289° West 385 443 38,000  Level Denver Center
Sun 05:19:49 PM 37.0544 -109.6892 289° West 387 445 38,000  Level Denver Center
Sun 05:20:50 PM 37.0939 -109.8300 289° West 384 442 38,000  Level Denver Center
Sun 05:21:52 PM 37.1267 -109.9492 289° West 382 440 38,000  Level Denver Center
Sun 05:22:53 PM 37.1658 -110.0897 289° West 383 441 38,000  Level Denver Center
Sun 05:23:55 PM 37.2006 -110.2183 289° West 380 437 38,000  Level Denver Center
Sun 05:24:56 PM 37.2336 -110.3431 288° West 378 435 38,000  Level Denver Center
Sun 05:25:58 PM 37.2681 -110.4675 289° West 378 435 38,000  Level Denver Center
Sun 05:26:59 PM 37.3019 -110.5933 289° West 381 438 38,000  Level Denver Center
Sun 05:28:01 PM 37.3353 -110.7183 289° West 380 437 38,000  Level Denver Center
Sun 05:29:02 PM 37.3697 -110.8461 289° West 385 443 38,000  Level Denver Center
Sun 05:30:04 PM 37.4036 -110.9725 289° West 383 441 38,000  Level Denver Center
Sun 05:31:05 PM 37.4436 -111.1269 288° West 389 448 38,000  Level Denver Center
Sun 05:32:07 PM 37.4778 -111.2542 289° West 386 444 38,000  Level Denver Center
Sun 05:33:08 PM 37.5108 -111.3817 288° West 384 442 38,000  Level Denver Center
Sun 05:34:22 PM 37.5444 -111.5100 288° West 386 444 38,000  Level Denver Center
Sun 05:35:24 PM 37.5839 -111.6647 288° West 388 447 38,000  Level Denver Center
Sun 05:36:25 PM 37.6178 -111.7956 288° West 394 453 38,000  Level Denver Center
Sun 05:37:28 PM 37.6519 -111.9258 288° West 393 452 38,000  Level Salt Lake Center
Sun 05:38:30 PM 37.6914 -112.0833 288° West 394 453 38,000  Level Salt Lake Center
Sun 05:39:31 PM 37.7247 -112.2128 288° West 391 450 38,000  Level Salt Lake Center
Sun 05:40:32 PM 37.7575 -112.3400 288° West 388 447 38,000  Level Salt Lake Center
Sun 05:41:34 PM 37.7897 -112.4692 288° West 387 445 38,000  Level Salt Lake Center
Sun 05:42:35 PM 37.8214 -112.5975 287° West 387 445 38,000  Level Salt Lake Center
Sun 05:43:37 PM 37.8533 -112.7261 287° West 388 447 38,000  Level Salt Lake Center
Sun 05:44:38 PM 37.8919 -112.8808 288° West 389 448 38,000  Level Salt Lake Center
Sun 05:45:39 PM 37.9214 -113.0086 286° West 385 443 38,000  Level Salt Lake Center
Sun 05:46:41 PM 37.9522 -113.1358 287° West 382 440 38,000  Level Salt Lake Center
Sun 05:47:42 PM 37.9831 -113.2633 287° West 383 441 38,000  Level Salt Lake Center
Sun 05:48:44 PM 38.0147 -113.3922 287° West 384 442 38,000  Level Salt Lake Center
Sun 05:49:45 PM 38.0456 -113.5214 287° West 385 443 38,000  Level Salt Lake Center
Sun 05:55:40 PM 38.2330 -114.3180 287° West 387 445 38,000  Level FlightAware ADS-B
Sun 05:56:24 PM 38.2520 -114.4030 286° West 387 445 38,000  Level FlightAware ADS-B
Sun 05:57:00 PM 38.2670 -114.4700 286° West 387 445 38,000  Level FlightAware ADS-B
Sun 05:58:02 PM 38.2930 -114.5850 286° West 387 445 38,000  Level FlightAware ADS-B
Sun 05:58:38 PM 38.3080 -114.6520 286° West 387 445 38,000  Level FlightAware ADS-B
Sun 05:59:27 PM 38.3280 -114.7440 286° West 387 445 38,000  Level FlightAware ADS-B
Sun 05:59:48 PM 38.2210 -114.8690 223° Southwest 380 437 38,000  Level FlightAware ADS-B
Sun 06:00:55 PM 38.2130 -114.9960 265° West 380 437 38,000  Level FlightAware ADS-B
Sun 06:01:31 PM 38.2080 -115.0640 265° West 380 437 38,000  Level FlightAware ADS-B
Sun 06:02:19 PM 38.2020 -115.1550 265° West 380 437 38,000  Level FlightAware ADS-B
Sun 06:02:56 PM 38.1970 -115.2250 265° West 380 437 38,000  Level FlightAware ADS-B
Sun 06:03:32 PM 38.1920 -115.2940 265° West 380 437 38,000  Level FlightAware ADS-B
Sun 06:04:20 PM 38.1860 -115.3850 265° West 380 437 38,000  Level FlightAware ADS-B
Sun 06:04:56 PM 38.1810 -115.4530 265° West 380 437 38,000  Level FlightAware ADS-B
Sun 06:05:42 PM 38.1750 -115.5400 265° West 380 437 38,000  Level FlightAware ADS-B
Sun 06:06:44 PM 38.1670 -115.6570 265° West 380 437 38,000  Level FlightAware ADS-B
Sun 06:07:20 PM 38.1620 -115.7250 265° West 380 437 38,000  Level FlightAware ADS-B
Sun 06:08:22 PM 38.1540 -115.8430 265° West 380 437 38,000  Level FlightAware ADS-B
Sun 06:08:58 PM 38.1500 -115.9110 266° West 380 437 38,000  Level FlightAware ADS-B
Sun 06:09:46 PM 38.1430 -116.0020 264° West 380 437 38,000  Level FlightAware ADS-B
Sun 06:10:12 PM 38.1278 -116.2392 264° West 378 435 38,000  Level Salt Lake Center
Sun 06:10:49 PM 38.1219 -116.3181 265° West 378 435 38,000  Level Oakland Center
Sun 06:11:50 PM 38.1119 -116.4514 265° West 379 436 38,000  Level Oakland Center
Sun 06:12:15 PM 38.1067 -116.5061 263° West 381 438 38,000  Level Salt Lake Center
Sun 06:13:16 PM 38.0969 -116.6381 265° West 378 435 38,000  Level Salt Lake Center
Sun 06:14:18 PM 38.0864 -116.7708 264° West 378 435 38,000  Level Salt Lake Center
Sun 06:15:19 PM 38.0756 -116.9036 264° West 377 434 38,000  Level Salt Lake Center
Sun 06:15:55 PM 38.0694 -116.9822 264° West 377 434 38,000  Level Oakland Center
Sun 06:16:56 PM 38.0581 -117.1172 264° West 377 434 38,000  Level Oakland Center
Sun 06:17:22 PM 38.0533 -117.1722 264° West 376 433 38,000  Level Salt Lake Center
Sun 06:17:57 PM 38.0464 -117.2553 264° West 381 438 38,000  Level Oakland Center
Sun 06:18:58 PM 38.0358 -117.3886 264° West 375 432 38,000  Level Oakland Center
Sun 06:19:59 PM 38.0250 -117.5200 264° West 373 429 38,000  Level Oakland Center
Sun 06:21:00 PM 38.0131 -117.6533 264° West 377 434 38,000  Level Oakland Center
Sun 06:26:18 PM 37.9390 -118.3740 264° West 382 440 38,000  Level FlightAware ADS-B
Sun 06:27:00 PM 37.9300 -118.4540 262° West 382 440 38,000  Level FlightAware ADS-B
Sun 06:27:37 PM 37.9200 -118.5490 262° West 381 438 38,000  Level FlightAware ADS-B
Sun 06:28:38 PM 37.9050 -118.6830 262° West 379 436 38,000  Level FlightAware ADS-B
Sun 06:29:15 PM 37.8960 -118.7640 262° West 379 436 38,000  Level FlightAware ADS-B
Sun 06:30:04 PM 37.8840 -118.8550 261° West 379 436 38,000  Level FlightAware ADS-B
Sun 06:30:40 PM 37.8760 -118.9220 261° West 379 436 38,000 -1,301 Level FlightAware ADS-B
Sun 06:31:27 PM 37.8620 -119.0590 263° West 389 448 36,200 -1,319 Descending FlightAware ADS-B
Sun 06:32:11 PM 37.8510 -119.1590 262° West 389 448 36,000 -143 Descending FlightAware ADS-B
Sun 06:32:51 PM 37.8400 -119.2490 261° West 392 451 36,000  Level FlightAware ADS-B
Sun 06:33:31 PM 37.8290 -119.3400 261° West 393 452 36,000  Level FlightAware ADS-B
Sun 06:34:14 PM 37.8180 -119.4340 262° West 392 451 36,000  Level FlightAware ADS-B
Sun 06:34:55 PM 37.8070 -119.5300 262° West 392 451 36,000  Level FlightAware ADS-B
Sun 06:35:32 PM 37.7970 -119.6110 261° West 391 450 36,000  Level FlightAware ADS-B
Sun 06:36:19 PM 37.7840 -119.7200 261° West 389 448 36,000  Level FlightAware ADS-B
Sun 06:37:03 PM 37.7720 -119.8180 261° West 389 448 36,000  Level FlightAware ADS-B
Sun 06:37:43 PM 37.7610 -119.9080 261° West 389 448 36,000  Level FlightAware ADS-B
Sun 06:38:18 PM 37.7515 -119.9860 261° West 389 448 36,000 -185 Level FlightAware ADS-B
Sun 06:38:48 PM 37.7431 -120.0540 261° West 390 449 35,800 -738 Descending FlightAware ADS-B
Sun 06:39:23 PM 37.7333 -120.1330 261° West 390 449 35,200 -985 Descending FlightAware ADS-B
Sun 06:39:55 PM 37.7246 -120.2040 261° West 393 452 34,700 -968 Descending FlightAware ADS-B
Sun 06:40:25 PM 37.7158 -120.2730 261° West 397 457 34,200 -1,770 Descending FlightAware ADS-B
Sun 06:40:56 PM 37.7071 -120.3430 261° West 396 456 32,900 -2,806 Descending FlightAware ADS-B
Sun 06:41:27 PM 37.6982 -120.4140 261° West 399 459 31,300 -2,769 Descending FlightAware ADS-B
Sun 06:42:01 PM 37.6877 -120.4930 260° West 399 459 29,900 -2,486 Descending FlightAware ADS-B
Sun 06:42:37 PM 37.6770 -120.5760 261° West 400 460 28,400 -2,500 Descending FlightAware ADS-B
Sun 06:43:13 PM 37.6666 -120.6590 261° West 400 460 26,900 -2,163 Descending FlightAware ADS-B
Sun 06:44:03 PM 37.6521 -120.7690 261° West 379 436 25,300 -2,217 Descending FlightAware ADS-B
Sun 06:44:45 PM 37.6400 -120.8590 260° West 373 429 23,500 -2,854 Descending FlightAware ADS-B
Sun 06:45:25 PM 37.6290 -120.9460 261° West 378 435 21,400 -2,753 Descending FlightAware ADS-B
Sun 06:46:10 PM 37.6180 -121.0420 262° West 366 421 19,600 -2,328 Descending FlightAware ADS-B
Sun 06:46:32 PM 37.6127 -121.0890 262° West 361 415 18,800 -1,962 Descending FlightAware ADS-B
Sun 06:47:02 PM 37.6057 -121.1510 262° West 347 399 17,900 -1,770 Descending FlightAware ADS-B
Sun 06:47:33 PM 37.5989 -121.2110 262° West 335 386 17,000 -1,905 Descending FlightAware ADS-B
Sun 06:48:05 PM 37.5919 -121.2710 262° West 331 381 15,900 -2,032 Descending FlightAware ADS-B
Sun 06:48:35 PM 37.5851 -121.3290 262° West 328 377 14,900 -2,100 Descending FlightAware ADS-B
Sun 06:49:05 PM 37.5786 -121.3860 262° West 324 373 13,800 -2,111 Descending FlightAware ADS-B
Sun 06:49:29 PM 37.5736 -121.4300 262° West 322 371 13,000 -2,000 Descending FlightAware ADS-B
Sun 06:49:59 PM 37.5671 -121.4860 262° West 324 373 12,000 -2,000 Descending FlightAware ADS-B
Sun 06:50:14 PM 37.5638 -121.5130 261° West 324 373 11,500 -1,895 Descending FlightAware ADS-B
Sun 06:50:18 PM 37.5627 -121.5210 260° West 325 374 11,400 -1,235 Descending FlightAware ADS-B
Sun 06:50:48 PM 37.5508 -121.5750 254° West 314 361 10,800 -600 Descending FlightAware ADS-B
Sun 06:51:18 PM 37.5394 -121.6260 254° West 285 328 10,800 -828 Level FlightAware ADS-B
Sun 06:51:46 PM 37.5295 -121.6690 254° West 284 327 10,000 -1,674 Descending FlightAware ADS-B
Sun 06:52:01 PM 37.5241 -121.6940 255° West 281 323 9,600 -1,355 Descending FlightAware ADS-B
Sun 06:52:17 PM 37.5188 -121.7170 254° West 278 320 9,300 -1,154 Descending FlightAware ADS-B
Sun 06:52:27 PM 37.5152 -121.7330 254° West 277 319 9,100 -1,440 Descending FlightAware ADS-B
Sun 06:52:42 PM 37.5100 -121.7560 254° West 273 314 8,700 -1,200 Descending FlightAware ADS-B
Sun 06:52:57 PM 37.5046 -121.7800 254° West 269 310 8,500 -800 Descending FlightAware ADS-B
Sun 06:53:12 PM 37.4996 -121.8020 254° West 260 299 8,300 -774 Descending FlightAware ADS-B
Sun 06:53:28 PM 37.4945 -121.8240 254° West 252 290 8,100 -774 Descending FlightAware ADS-B
Sun 06:53:43 PM 37.4897 -121.8460 255° West 247 284 7,900 -600 Descending FlightAware ADS-B
Sun 06:53:58 PM 37.4852 -121.8660 254° West 240 276 7,800 -333 Descending FlightAware ADS-B
Sun 06:54:01 PM 37.4844 -121.8700 256° West 234 269 7,800  Level FlightAware ADS-B
Sun 06:54:05 PM 37.4839 -121.8740 261° West 230 265 7,800  Level FlightAware ADS-B
Sun 06:54:09 PM 37.4836 -121.8810 267° West 224 258 7,800  Level FlightAware ADS-B
Sun 06:54:12 PM 37.4837 -121.8850 272° West 222 255 7,800 -857 Level FlightAware ADS-B
Sun 06:54:16 PM 37.4840 -121.8890 275° West 220 253 7,700 -1,500 Descending FlightAware ADS-B
Sun 06:54:20 PM 37.4848 -121.8940 281° West 219 252 7,600 -1,714 Descending FlightAware ADS-B
Sun 06:54:23 PM 37.4856 -121.8980 284° West 217 250 7,500 -1,500 Descending FlightAware ADS-B
Sun 06:54:36 PM 37.4888 -121.9140 284° West 210 242 7,200 -1,034 Descending FlightAware ADS-B
Sun 06:54:52 PM 37.4921 -121.9320 283° West 199 229 7,000 -968 Descending FlightAware ADS-B
Sun 06:55:07 PM 37.4954 -121.9490 284° West 193 222 6,700 -1,091 Descending FlightAware ADS-B
Sun 06:55:25 PM 37.4994 -121.9680 285° West 190 219 6,400 -1,091 Descending FlightAware ADS-B
Sun 06:55:40 PM 37.5027 -121.9840 285° West 187 215 6,100 -1,034 Descending FlightAware ADS-B
Sun 06:55:54 PM 37.5055 -121.9980 284° West 186 214 5,900 -947 Descending FlightAware ADS-B
Sun 06:55:59 PM 37.5069 -122.0030 289° West 187 215 5,800 -1,091 Descending FlightAware ADS-B
Sun 06:56:16 PM 37.5123 -122.0210 291° West 188 216 5,500 -1,091 Descending FlightAware ADS-B
Sun 06:56:32 PM 37.5171 -122.0360 292° West 187 215 5,200 -1,125 Descending FlightAware ADS-B
Sun 06:56:48 PM 37.5220 -122.0520 291° West 182 209 4,900 -1,161 Descending FlightAware ADS-B
Sun 06:57:03 PM 37.5266 -122.0670 291° West 180 207 4,600 -1,200 Descending FlightAware ADS-B
Sun 06:57:18 PM 37.5311 -122.0820 291° West 179 206 4,300 -1,034 Descending FlightAware ADS-B
Sun 06:57:32 PM 37.5351 -122.0950 291° West 178 205 4,100 -828 Descending FlightAware ADS-B
Sun 06:57:47 PM 37.5394 -122.1100 290° West 172 198 3,900 -1,000 Descending FlightAware ADS-B
Sun 06:58:02 PM 37.5436 -122.1230 292° West 165 190 3,600 -968 Descending FlightAware ADS-B
Sun 06:58:18 PM 37.5479 -122.1370 291° West 160 184 3,400 -828 Descending FlightAware ADS-B
Sun 06:58:31 PM 37.5511 -122.1480 290° West 153 176 3,200 -857 Descending FlightAware ADS-B
Sun 06:58:39 PM 37.5529 -122.1540 291° West 152 175 3,100 -750 Descending FlightAware ADS-B
Sun 06:58:47 PM 37.5549 -122.1610 290° West 152 175 3,000 -1,043 Descending FlightAware ADS-B
Sun 06:59:02 PM 37.5587 -122.1730 292° West 149 171 2,700 -1,000 Descending FlightAware ADS-B
Sun 06:59:17 PM 37.5626 -122.1850 292° West 149 171 2,500 -783 Descending FlightAware ADS-B
Sun 06:59:25 PM 37.5647 -122.1920 291° West 147 169 2,400 -750 Descending FlightAware ADS-B
Sun 06:59:41 PM 37.5684 -122.2040 291° West 145 167 2,200 -774 Descending FlightAware ADS-B
Sun 06:59:56 PM 37.5721 -122.2160 291° West 145 167 2,000 -783 Descending FlightAware ADS-B
Sun 07:00:04 PM 37.5741 -122.2220 293° West 144 166 1,900 -857 Descending FlightAware ADS-B
Sun 07:00:17 PM 37.5775 -122.2330 291° West 144 166 1,700 -1,059 Descending FlightAware ADS-B
Sun 07:00:21 PM 37.5784 -122.2360 291° West 145 167 1,600 -750 Descending FlightAware ADS-B
Sun 07:00:25 PM 37.5790 -122.2390 284° West 145 167 1,600  Level FlightAware ADS-B
Sun 07:00:30 PM 37.5796 -122.2440 279° West 146 168 1,600 -571 Level FlightAware ADS-B
Sun 07:00:46 PM 37.5810 -122.2570 278° West 142 163 1,400 -480 Descending FlightAware ADS-B
Sun 07:00:55 PM 37.5819 -122.2640 279° West 137 158 1,400 -316 Level FlightAware ADS-B
Sun 07:01:05 PM 37.5832 -122.2720 282° West 130 150 1,300 -375 Descending FlightAware ADS-B
Sun 07:01:11 PM 37.5839 -122.2760 282° West 131 151 1,300 -706 Level FlightAware ADS-B
Sun 07:01:22 PM 37.5853 -122.2840 282° West 130 150 1,100 -706 Descending FlightAware ADS-B
Sun 07:01:28 PM 37.5863 -122.2880 288° West 131 151 1,100 -600 Level FlightAware ADS-B
Sun 07:01:32 PM 37.5872 -122.2910 291° West 131 151 1,000 -800 Descending FlightAware ADS-B
Sun 07:01:43 PM 37.5900 -122.2990 294° West 133 153 900 -667 Descending FlightAware ADS-B
Sun 07:01:59 PM 37.5938 -122.3100 294° West 135 155 700 -686 Descending FlightAware ADS-B
Sun 07:02:18 PM 37.5995 -122.3240 297° West 134 154 500 -643 Descending FlightAware ADS-B
Sun 07:02:27 PM 37.6020 -122.3300 298° West 133 153 400 -947 Descending FlightAware ADS-B
Sun 07:02:37 PM 37.6049 -122.3360 301° West 133 153 200 -857 Descending FlightAware ADS-B
Sun 07:02:41 PM 37.6060 -122.3390 295° West 132 152 200  Level FlightAware ADS-B
Sun 07:02:57 PM 37.6103 -122.3500 296° West 127 146 -750 Descending FlightAware ADS-B
Sun 07:03:46 PM 37.6210 -122.3750 298° West 41 47  Level FlightAware ADS-B
Sun 07:04:00 PM 37.6210 -122.3770 270° West 18 21  Level FlightAware ADS-B

Login

Don't have an account? Register now (free) for customized features, flight alerts, and more!